Airfield :
LOGIN :

Register | Disclaimer

   EN    FR    IT 

 










Legend :    VFR   Marginal VFR   IFR   Intensive IFR   Very Intensive IFR
Visi :
Ceiling :
>= 8 km
>= 3000ft
5 to 8 km
1000 to 3000 ft
1500m to 5 km
500 to 1000 ft
800 to 1500m
200 to 500 ft
< 800m
< 200 ft
Symbols :   Thunderstorms  Fog  Heavy snow  Heavy precipitations  Wind > 20 kt
SIGMETs :     Misc.  Thunderstorms  Icing  Turbulence  Mountain Waves  Volcanic Ashes







- Airport Elevation : 138 ft
- IATA code : BIO


LEBB - Bilbao

CURRENT METAR :
  • 251430Z 31007KT 9999 FEW018 SCT035 BKN045 18/17 Q1023 TEMPO 3000 RA

EXPIRED METARs :
  • 251400Z 30011KT 270V340 6000 FEW010 SCT035 BKN045 18/17 Q1023 TEMPO 3000 RA
  • 251338Z 32017KT 9999 3000W FEW025 SCT040 BKN055 18/16 Q1023 TEMPO 3000 RA
  • 251330Z 32018KT 9000 FEW025 SCT040 BKN055 19/16 Q1023 TEMPO RA
  • 251300Z 35003KT 290V100 9999 FEW022 SCT030 BKN046 21/17 Q1023 TEMPO RA
  • 251230Z 33010KT 9000 -RA FEW022 SCT030 BKN046 19/17 Q1023 TEMPO RA
  • 251200Z 33009KT 300V010 9999 FEW026 SCT050 21/16 Q1023 NOSIG

TAF AMD TAF LEBB
Valid from the 25 at 13:00 until the 26 at 12:00 UTC


251317Z 2513/2612 31009KT 9999 SCT030 BKN050 TX21/2514Z TN12/2606Z
TEMPO 2513/2518 30016G26KT
TEMPO 2513/2608 4000 -RA BKN014
PROB30
TEMPO 2513/2518 3000 RA BKN012
No reported NOTAMs for that airfield.



MET'MAP, your aeronautical weather chart ! - Copyright ORBIFLY December 2007 - Disclaimer

ORBIFLY MET'MAP TEAM :

Programming & Development : Alexandra Zaïnal
Concept & Development : Baudouin d'Aumeries
Co-Development & Prog : Marc-Olivier Méhu
Technical & hardware support : Manuel Goepfert

Contact : metmap@orbifly.com




SOURCES & CREDITS :

   NOAA